createdAt,value
2023-01-06T00:01:22.855Z,2.67
2023-01-06T00:03:52.410Z,1.97
2023-01-06T00:06:27.668Z,1.60
2023-01-06T00:08:56.260Z,1.90
2023-01-06T00:11:24.901Z,2.40
2023-01-06T00:13:53.272Z,2.50
2023-01-06T00:16:22.124Z,4.00
2023-01-06T00:18:50.280Z,2.37
2023-01-06T00:21:18.323Z,1.83
2023-01-06T00:23:47.587Z,3.10
2023-01-06T00:26:15.769Z,5.60
2023-01-06T00:28:43.757Z,2.00
2023-01-06T00:31:13.548Z,4.73
2023-01-06T00:33:42.207Z,1.80
2023-01-06T00:36:11.692Z,2.30
2023-01-06T00:38:40.511Z,2.13
2023-01-06T00:41:25.639Z,1.73
2023-01-06T00:43:53.664Z,2.20
2023-01-06T00:46:22.613Z,1.70
2023-01-06T00:49:04.291Z,2.60
2023-01-06T00:51:33.050Z,1.70
2023-01-06T00:54:01.763Z,1.37
2023-01-06T00:56:31.208Z,2.33
2023-01-06T00:58:59.213Z,3.07
2023-01-06T01:01:27.276Z,2.17
2023-01-06T01:03:55.577Z,3.40
2023-01-06T01:06:23.844Z,2.60
2023-01-06T01:08:54.858Z,3.10
2023-01-06T01:11:40.877Z,2.23
2023-01-06T01:14:11.091Z,2.50
2023-01-06T01:16:39.309Z,2.33
2023-01-06T01:19:08.486Z,2.00
2023-01-06T01:21:36.720Z,2.43
2023-01-06T01:24:04.888Z,2.22
2023-01-06T01:26:32.973Z,2.50
2023-01-06T01:29:01.459Z,1.80
2023-01-06T01:31:30.911Z,3.13
2023-01-06T01:33:59.293Z,2.03
2023-01-06T01:36:27.190Z,1.43
2023-01-06T01:38:57.252Z,2.23
2023-01-06T01:41:26.579Z,1.87
2023-01-06T01:43:57.722Z,1.93
2023-01-06T01:46:30.856Z,2.40
2023-01-06T01:49:04.869Z,1.80
2023-01-06T01:51:42.240Z,1.80
2023-01-06T01:54:14.789Z,1.70
2023-01-06T01:56:47.517Z,1.17
2023-01-06T01:59:18.450Z,1.80
2023-01-06T02:01:47.792Z,1.60
2023-01-06T02:04:18.433Z,1.67
2023-01-06T02:06:50.571Z,1.73
2023-01-06T02:09:22.259Z,1.50
2023-01-06T02:11:51.377Z,1.27
2023-01-06T02:14:22.308Z,2.13
2023-01-06T02:17:01.572Z,1.60
2023-01-06T02:19:56.106Z,2.13
2023-01-06T02:22:38.732Z,1.53
2023-01-06T02:25:27.097Z,2.20
2023-01-06T02:28:28.235Z,1.27
2023-01-06T02:31:30.710Z,1.93
2023-01-06T02:34:04.581Z,2.60
2023-01-06T02:36:41.058Z,2.80
2023-01-06T02:39:25.569Z,1.73
2023-01-06T02:42:02.725Z,2.80
2023-01-06T02:44:34.919Z,2.03
2023-01-06T02:47:14.192Z,1.83
2023-01-06T02:49:48.149Z,1.97
2023-01-06T02:52:23.754Z,2.13
2023-01-06T02:54:56.975Z,2.83
2023-01-06T02:57:29.378Z,2.00
2023-01-06T03:00:05.481Z,2.00
2023-01-06T03:02:37.381Z,1.80
2023-01-06T03:05:07.391Z,1.70
2023-01-06T03:07:37.082Z,1.60
2023-01-06T03:10:06.619Z,2.50
2023-01-06T03:12:42.234Z,1.67
2023-01-06T03:15:11.330Z,1.40
2023-01-06T03:17:40.919Z,3.10
2023-01-06T03:20:10.050Z,1.33
2023-01-06T03:22:39.783Z,2.07
2023-01-06T03:25:09.827Z,1.97
2023-01-06T03:27:37.948Z,1.23
2023-01-06T03:30:10.307Z,2.43
2023-01-06T03:32:49.026Z,2.37
2023-01-06T03:35:45.748Z,1.77
2023-01-06T03:38:23.590Z,1.77
2023-01-06T03:40:59.553Z,1.43
2023-01-06T03:43:33.775Z,1.30
2023-01-06T03:46:18.401Z,1.43
2023-01-06T03:48:56.158Z,2.33
2023-01-06T03:51:38.265Z,1.20
2023-01-06T03:54:12.118Z,1.77
2023-01-06T03:56:44.199Z,1.30
2023-01-06T03:59:15.985Z,1.90
2023-01-06T04:01:45.374Z,1.50
2023-01-06T04:04:15.007Z,1.47
2023-01-06T04:06:43.348Z,1.90
2023-01-06T04:09:11.764Z,1.90
2023-01-06T04:11:57.682Z,2.50
2023-01-06T04:14:25.567Z,1.87
2023-01-06T04:16:53.776Z,1.63
2023-01-06T04:19:23.041Z,1.53
2023-01-06T04:21:50.969Z,1.20
2023-01-06T04:24:19.013Z,1.47
2023-01-06T04:26:46.919Z,1.33
2023-01-06T04:29:14.966Z,2.60
2023-01-06T04:31:42.943Z,1.93
2023-01-06T04:34:10.958Z,1.57
2023-01-06T04:36:40.242Z,1.40
2023-01-06T04:39:08.386Z,1.50
2023-01-06T04:41:36.481Z,2.67
2023-01-06T04:44:04.452Z,1.37
2023-01-06T04:46:32.537Z,1.57
2023-01-06T04:49:00.843Z,1.50
2023-01-06T04:51:28.732Z,1.70
2023-01-06T04:53:58.372Z,1.87
2023-01-06T04:56:26.964Z,2.50
2023-01-06T04:58:56.583Z,1.83
2023-01-06T05:01:25.288Z,1.20
2023-01-06T05:03:53.656Z,1.50
2023-01-06T05:06:21.816Z,2.30
2023-01-06T05:08:50.168Z,1.30
2023-01-06T05:11:21.128Z,1.70
2023-01-06T05:13:49.776Z,1.60
2023-01-06T05:16:21.686Z,3.00
2023-01-06T05:18:49.844Z,2.00
2023-01-06T05:21:18.232Z,1.93
2023-01-06T05:23:46.546Z,1.30
2023-01-06T05:26:18.625Z,2.10
2023-01-06T05:28:48.555Z,1.47
2023-01-06T05:31:17.038Z,1.60
2023-01-06T05:33:45.133Z,1.40
2023-01-06T05:36:14.509Z,1.53
2023-01-06T05:38:43.118Z,1.20
2023-01-06T05:41:11.522Z,1.43
2023-01-06T05:43:39.775Z,1.60
2023-01-06T05:46:11.123Z,1.43
2023-01-06T05:48:40.430Z,3.27
2023-01-06T05:51:09.717Z,1.10
2023-01-06T05:53:39.951Z,5.33
2023-01-06T05:56:10.116Z,1.30
2023-01-06T05:58:40.393Z,0.87
2023-01-06T06:01:17.884Z,1.23
2023-01-06T06:03:46.451Z,1.30
2023-01-06T06:06:14.606Z,1.33
2023-01-06T06:08:42.673Z,2.60
2023-01-06T06:11:12.314Z,1.63
2023-01-06T06:13:45.760Z,1.37
2023-01-06T06:16:16.633Z,3.20
2023-01-06T06:18:44.810Z,1.73
2023-01-06T06:21:14.747Z,1.33
2023-01-06T06:23:43.377Z,1.40
2023-01-06T06:26:12.525Z,1.77
2023-01-06T06:28:41.618Z,1.33
2023-01-06T06:31:11.808Z,2.03
2023-01-06T06:33:41.347Z,1.50
2023-01-06T06:36:12.218Z,1.43
2023-01-06T06:38:40.229Z,1.00
2023-01-06T06:41:08.488Z,2.00
2023-01-06T06:43:36.550Z,1.03
2023-01-06T06:46:04.654Z,1.23
2023-01-06T06:48:32.948Z,2.40
2023-01-06T06:51:03.938Z,1.60
2023-01-06T06:53:32.929Z,1.57
2023-01-06T06:56:01.235Z,1.30
2023-01-06T06:58:29.142Z,1.40
2023-01-06T07:00:57.311Z,1.20
2023-01-06T07:03:26.206Z,1.00
2023-01-06T07:08:56.943Z,1.60
2023-01-06T07:26:12.466Z,1.60
2023-01-06T07:28:40.359Z,1.47
2023-01-06T07:31:08.378Z,1.87
2023-01-06T07:33:36.679Z,2.43
2023-01-06T07:36:05.072Z,1.17
2023-01-06T07:38:34.427Z,1.43
2023-01-06T07:41:02.649Z,1.40
2023-01-06T07:43:31.080Z,2.03
2023-01-06T07:45:59.135Z,1.47
2023-01-06T07:48:27.123Z,1.00
2023-01-06T07:50:55.361Z,1.00
2023-01-06T07:53:23.392Z,1.17
2023-01-06T07:55:56.153Z,1.53
2023-01-06T07:58:24.969Z,0.80
2023-01-06T08:00:52.909Z,2.10
2023-01-06T08:03:21.071Z,1.20
2023-01-06T08:05:49.075Z,1.47
2023-01-06T08:08:17.341Z,1.60
2023-01-06T08:10:45.570Z,1.13
2023-01-06T08:13:14.868Z,0.97
2023-01-06T08:15:43.063Z,2.27
2023-01-06T08:18:11.221Z,1.30
2023-01-06T08:20:39.269Z,1.40
2023-01-06T08:23:07.268Z,1.10
2023-01-06T08:25:35.355Z,1.57
2023-01-06T08:28:03.481Z,1.63
2023-01-06T08:30:39.713Z,1.30
2023-01-06T08:33:07.835Z,1.80
2023-01-06T08:35:35.903Z,1.73
2023-01-06T08:38:03.951Z,2.50
2023-01-06T08:40:32.162Z,1.70
2023-01-06T08:43:00.135Z,1.63
2023-01-06T08:45:28.037Z,1.30
2023-01-06T08:47:57.481Z,1.20
2023-01-06T08:50:26.711Z,1.77
2023-01-06T08:52:55.358Z,1.17
2023-01-06T08:55:23.487Z,1.50
2023-01-06T08:57:53.321Z,1.60
2023-01-06T09:00:22.880Z,1.50
2023-01-06T09:02:51.441Z,1.70
2023-01-06T09:05:20.915Z,1.30
2023-01-06T09:14:14.730Z,3.13
2023-01-06T09:16:42.898Z,1.20
2023-01-06T09:19:11.465Z,0.87
2023-01-06T09:21:42.979Z,0.98
2023-01-06T09:24:14.846Z,0.60
2023-01-06T09:26:43.019Z,1.47
2023-01-06T09:29:10.931Z,1.50
2023-01-06T09:31:38.993Z,1.00
2023-01-06T09:34:06.989Z,0.77
2023-01-06T09:36:35.214Z,1.57
2023-01-06T09:39:04.678Z,1.55
2023-01-06T09:41:56.236Z,1.50
2023-01-06T09:44:29.632Z,1.25
2023-01-06T09:46:59.995Z,1.63
2023-01-06T09:49:34.276Z,0.90
2023-01-06T09:52:06.508Z,0.70
2023-01-06T09:54:41.346Z,1.10
2023-01-06T09:57:18.151Z,1.03
2023-01-06T09:59:49.711Z,2.00
2023-01-06T10:02:23.765Z,1.43
2023-01-06T10:04:51.926Z,1.70
2023-01-06T10:07:28.352Z,1.30
2023-01-06T10:10:11.096Z,0.80
2023-01-06T10:12:49.249Z,1.63
2023-01-06T10:15:27.754Z,1.80
2023-01-06T10:18:22.312Z,0.60
2023-01-06T10:21:00.052Z,1.23
2023-01-06T10:23:53.813Z,1.10
2023-01-06T10:26:30.485Z,1.20
2023-01-06T10:29:03.975Z,1.63
2023-01-06T10:31:36.022Z,0.90
2023-01-06T10:34:05.695Z,2.90
2023-01-06T10:36:40.149Z,1.97
2023-01-06T10:39:16.812Z,3.23
2023-01-06T10:41:51.655Z,2.40
2023-01-06T10:44:20.747Z,0.87
2023-01-06T10:46:50.121Z,1.30
2023-01-06T10:49:20.458Z,1.47
2023-01-06T10:51:52.919Z,1.93
2023-01-06T10:54:25.436Z,2.20
2023-01-06T10:56:59.620Z,2.57
2023-01-06T10:59:27.856Z,1.60
2023-01-06T11:01:58.058Z,2.70
2023-01-06T11:04:27.996Z,0.93
2023-01-06T11:06:58.468Z,1.87
2023-01-06T11:09:31.224Z,2.40
2023-01-06T11:12:02.527Z,1.10
2023-01-06T11:14:33.360Z,2.30
2023-01-06T11:17:03.484Z,1.90
2023-01-06T11:19:38.699Z,1.60
2023-01-06T11:22:27.329Z,1.40
2023-01-06T11:24:56.277Z,2.20
2023-01-06T11:27:25.664Z,1.20
2023-01-06T11:29:53.680Z,1.87
2023-01-06T11:32:27.953Z,2.80
2023-01-06T11:34:57.816Z,1.43
2023-01-06T11:37:36.494Z,2.93
2023-01-06T11:40:16.762Z,2.53
2023-01-06T11:42:50.221Z,4.03
2023-01-06T11:45:34.470Z,4.83
2023-01-06T11:48:04.028Z,3.73
2023-01-06T11:50:32.814Z,3.90
2023-01-06T11:53:02.019Z,3.20
2023-01-06T11:55:30.860Z,4.30
2023-01-06T11:58:05.219Z,3.93
2023-01-06T12:00:42.848Z,4.23
2023-01-06T12:03:19.630Z,5.83
2023-01-06T12:05:57.251Z,5.83
2023-01-06T12:08:27.656Z,4.57
2023-01-06T12:11:00.771Z,3.40
2023-01-06T12:13:39.823Z,4.23
2023-01-06T12:16:17.595Z,3.83
2023-01-06T12:18:46.091Z,3.17
2023-01-06T12:21:19.411Z,3.23
2023-01-06T12:23:49.895Z,4.13
2023-01-06T12:26:24.734Z,3.60
2023-01-06T12:28:57.559Z,3.03
2023-01-06T12:31:34.404Z,3.40
2023-01-06T12:34:06.760Z,4.13
2023-01-06T12:36:40.257Z,4.67
2023-01-06T12:39:14.329Z,2.80
2023-01-06T12:41:49.011Z,3.57
2023-01-06T12:44:35.726Z,3.20
2023-01-06T12:47:09.073Z,3.33
2023-01-06T12:49:43.507Z,2.90
2023-01-06T12:52:18.355Z,2.00
2023-01-06T12:54:52.494Z,2.90
2023-01-06T12:57:38.702Z,2.87
2023-01-06T13:00:33.156Z,8.73
2023-01-06T13:03:27.768Z,1.70
2023-01-06T13:06:11.282Z,1.30
2023-01-06T13:08:59.052Z,1.80
2023-01-06T13:11:39.772Z,2.20
2023-01-06T13:14:15.833Z,2.70
2023-01-06T13:16:52.325Z,2.27
2023-01-06T13:19:33.226Z,1.77
2023-01-06T13:22:04.300Z,2.03
2023-01-06T13:24:48.575Z,1.57
2023-01-06T13:27:33.075Z,1.30
2023-01-06T13:30:16.545Z,1.13
2023-01-06T13:33:02.525Z,1.37
2023-01-06T13:35:56.778Z,1.73
2023-01-06T13:38:50.317Z,0.80
2023-01-06T13:41:21.669Z,1.13
2023-01-06T13:43:52.263Z,1.40
2023-01-06T13:46:23.241Z,2.90
2023-01-06T13:48:56.305Z,1.50
2023-01-06T13:51:27.019Z,3.30
2023-01-06T13:53:56.514Z,3.43
2023-01-06T13:56:26.562Z,1.00
2023-01-06T13:59:20.510Z,1.10
2023-01-06T14:01:48.774Z,2.37
2023-01-06T14:04:53.738Z,2.20
2023-01-06T14:07:35.502Z,1.00
2023-01-06T14:10:07.875Z,0.90
2023-01-06T14:12:37.584Z,1.10
2023-01-06T14:15:18.749Z,1.53
2023-01-06T14:17:47.430Z,1.60
2023-01-06T14:20:28.531Z,1.43
2023-01-06T14:23:03.849Z,1.90
2023-01-06T14:25:37.355Z,1.37
2023-01-06T14:28:32.757Z,1.63
2023-01-06T14:31:46.173Z,1.10
2023-01-06T14:34:16.675Z,3.50
2023-01-06T14:36:45.046Z,2.53
2023-01-06T14:39:24.159Z,1.00
2023-01-06T14:42:01.597Z,1.33
2023-01-06T14:44:38.076Z,1.70
2023-01-06T14:47:12.199Z,1.90
2023-01-06T14:49:50.761Z,1.63
2023-01-06T14:52:21.902Z,2.13
2023-01-06T14:54:54.673Z,1.20
2023-01-06T14:57:27.888Z,1.60
2023-01-06T15:00:14.092Z,1.20
2023-01-06T15:02:46.692Z,1.77
2023-01-06T15:05:20.841Z,1.67
2023-01-06T15:08:03.818Z,1.80
2023-01-06T15:10:35.644Z,2.83
2023-01-06T15:13:03.933Z,1.70
2023-01-06T15:15:33.785Z,2.13
2023-01-06T15:18:03.742Z,1.63
2023-01-06T15:20:34.975Z,1.20
2023-01-06T15:23:03.713Z,1.03
2023-01-06T15:25:35.636Z,1.63
2023-01-06T15:28:03.890Z,1.53
2023-01-06T15:30:34.813Z,2.20
2023-01-06T15:33:04.918Z,1.77
2023-01-06T15:35:34.111Z,1.70
2023-01-06T15:38:05.325Z,1.70
2023-01-06T15:40:34.939Z,1.50
2023-01-06T15:43:03.078Z,2.53
2023-01-06T15:45:33.935Z,2.30
2023-01-06T15:48:09.022Z,2.33
2023-01-06T15:50:37.770Z,1.70
2023-01-06T15:53:07.350Z,1.63
2023-01-06T15:58:30.395Z,2.00
2023-01-06T16:01:02.525Z,1.27
2023-01-06T16:03:32.625Z,1.60
2023-01-06T16:06:11.635Z,1.20
2023-01-06T16:08:40.940Z,1.60
2023-01-06T16:11:41.707Z,2.30
2023-01-06T16:14:27.119Z,2.30
2023-01-06T16:17:02.430Z,1.40
2023-01-06T16:19:30.982Z,1.77
2023-01-06T16:22:03.691Z,1.30
2023-01-06T16:24:31.904Z,2.93
2023-01-06T16:27:03.860Z,1.90
2023-01-06T16:29:33.407Z,3.20
2023-01-06T16:32:21.296Z,2.17
2023-01-06T16:34:51.813Z,1.58
2023-01-06T16:37:19.720Z,1.50
2023-01-06T16:39:47.630Z,5.07
2023-01-06T16:42:43.531Z,1.60
2023-01-06T16:45:26.813Z,3.23
2023-01-06T16:47:55.883Z,2.53
2023-01-06T16:50:26.923Z,1.90
2023-01-06T16:53:04.780Z,1.52
2023-01-06T16:55:33.018Z,1.63
2023-01-06T16:58:06.803Z,3.43
2023-01-06T17:00:39.331Z,1.73
2023-01-06T17:03:14.229Z,2.53
2023-01-06T17:05:42.475Z,2.30
2023-01-06T17:08:14.446Z,2.70
2023-01-06T17:10:43.119Z,2.03
2023-01-06T17:13:33.833Z,2.43
2023-01-06T17:16:05.045Z,1.63
2023-01-06T17:18:34.835Z,3.13
2023-01-06T17:21:12.115Z,2.30
2023-01-06T17:23:44.288Z,2.67
2023-01-06T17:26:15.670Z,2.33
2023-01-06T17:28:45.382Z,2.20
2023-01-06T17:31:16.810Z,3.13
2023-01-06T17:33:46.788Z,2.00
2023-01-06T17:36:24.199Z,2.20
2023-01-06T17:38:53.053Z,4.20
2023-01-06T17:41:22.207Z,3.97
2023-01-06T17:43:51.610Z,2.80
2023-01-06T17:46:29.618Z,4.97
2023-01-06T17:49:02.945Z,3.17
2023-01-06T17:51:31.009Z,3.77
2023-01-06T17:54:17.705Z,5.97
2023-01-06T17:56:45.761Z,3.30
2023-01-06T17:59:18.744Z,2.40
2023-01-06T18:01:46.846Z,2.47
2023-01-06T18:04:16.837Z,3.10
2023-01-06T18:06:52.572Z,3.00
2023-01-06T18:09:23.603Z,3.10
2023-01-06T18:11:52.898Z,3.43
2023-01-06T18:14:30.482Z,3.80
2023-01-06T18:17:00.722Z,10.43
2023-01-06T18:19:35.033Z,5.70
2023-01-06T18:22:11.539Z,2.80
2023-01-06T18:24:41.492Z,3.87
2023-01-06T18:27:18.266Z,4.17
2023-01-06T18:29:47.579Z,3.57
2023-01-06T18:32:33.791Z,2.37
2023-01-06T18:35:03.863Z,5.17
2023-01-06T18:37:33.831Z,3.00
2023-01-06T18:40:05.264Z,4.33
2023-01-06T18:42:36.643Z,4.50
2023-01-06T18:45:19.273Z,3.67
2023-01-06T18:47:52.900Z,4.67
2023-01-06T18:50:26.399Z,4.10
2023-01-06T18:52:55.547Z,3.60
2023-01-06T18:55:35.382Z,2.73
2023-01-06T18:58:09.351Z,5.90
2023-01-06T19:00:41.592Z,4.63
2023-01-06T19:03:30.958Z,3.63
2023-01-06T19:06:28.777Z,4.43
2023-01-06T19:08:58.108Z,3.70
2023-01-06T19:11:27.435Z,3.63
2023-01-06T19:13:59.913Z,4.20
2023-01-06T19:16:37.192Z,3.03
2023-01-06T19:19:35.427Z,3.93
2023-01-06T19:22:16.231Z,5.53
2023-01-06T19:24:50.586Z,2.70
2023-01-06T19:27:43.808Z,4.27
2023-01-06T19:30:40.748Z,3.30
2023-01-06T19:33:27.304Z,5.97
2023-01-06T19:36:02.611Z,3.67
2023-01-06T19:38:32.601Z,5.00
2023-01-06T19:41:03.229Z,3.53
2023-01-06T19:43:33.271Z,2.47
2023-01-06T19:46:03.773Z,3.57
2023-01-06T19:48:38.527Z,4.90
2023-01-06T19:51:23.611Z,3.93
2023-01-06T19:53:54.412Z,2.80
2023-01-06T19:56:25.146Z,4.87
2023-01-06T19:58:55.216Z,3.93
2023-01-06T20:01:23.924Z,5.90
2023-01-06T20:03:55.659Z,7.43
2023-01-06T20:06:24.695Z,4.40
2023-01-06T20:08:53.437Z,2.80
2023-01-06T20:11:22.432Z,4.10
2023-01-06T20:13:50.617Z,7.07
2023-01-06T20:16:18.828Z,3.20
2023-01-06T20:18:46.754Z,3.05
2023-01-06T20:21:16.126Z,6.40
2023-01-06T20:23:44.182Z,2.57
2023-01-06T20:26:12.085Z,3.03
2023-01-06T20:28:39.990Z,2.73
2023-01-06T20:31:09.063Z,3.17
2023-01-06T20:33:37.112Z,5.23
2023-01-06T20:36:07.750Z,5.90
2023-01-06T20:38:37.252Z,3.50
2023-01-06T20:41:05.753Z,4.75
2023-01-06T20:43:33.699Z,3.80
2023-01-06T20:46:01.864Z,2.93
2023-01-06T20:52:10.981Z,3.72
2023-01-06T20:54:40.242Z,3.17
2023-01-06T20:57:14.038Z,4.57
2023-01-06T20:59:42.103Z,3.93
2023-01-06T21:02:10.161Z,5.07
2023-01-06T21:04:38.180Z,4.53
2023-01-06T21:07:06.995Z,4.90
2023-01-06T21:09:34.861Z,3.93
2023-01-06T21:12:04.269Z,5.53
2023-01-06T21:14:32.967Z,4.07
2023-01-06T21:17:01.087Z,3.87
2023-01-06T21:19:29.010Z,4.57
2023-01-06T21:21:57.163Z,3.30
2023-01-06T21:24:25.460Z,4.63
2023-01-06T21:26:53.374Z,3.87
2023-01-06T21:29:23.114Z,4.13
2023-01-06T21:31:51.264Z,4.27
2023-01-06T21:34:19.386Z,3.93
2023-01-06T21:36:47.527Z,2.67
2023-01-06T21:39:15.655Z,3.63
2023-01-06T21:42:01.010Z,3.87
2023-01-06T21:44:30.441Z,5.30
2023-01-06T21:46:59.608Z,4.80
2023-01-06T21:49:27.808Z,3.50
2023-01-06T21:51:57.507Z,2.90
2023-01-06T21:54:26.036Z,4.27
2023-01-06T21:56:54.149Z,3.93
2023-01-06T21:59:22.382Z,3.30
2023-01-06T22:01:52.127Z,3.93
2023-01-06T22:04:20.504Z,4.87
2023-01-06T22:06:48.694Z,2.80
2023-01-06T22:09:19.034Z,2.73
2023-01-06T22:11:48.498Z,4.63
2023-01-06T22:14:18.107Z,5.17
2023-01-06T22:16:46.771Z,4.07
2023-01-06T22:19:17.067Z,4.27
2023-01-06T22:21:46.352Z,4.30
2023-01-06T22:24:16.855Z,3.37
2023-01-06T22:26:44.912Z,3.70
2023-01-06T22:29:12.972Z,4.40
2023-01-06T22:31:41.968Z,3.50
2023-01-06T22:34:10.048Z,5.23
2023-01-06T22:36:39.361Z,3.40
2023-01-06T22:39:07.688Z,3.70
2023-01-06T22:41:35.929Z,4.60
2023-01-06T22:44:04.321Z,3.90
2023-01-06T22:46:32.519Z,3.77
2023-01-06T22:49:00.414Z,4.20
2023-01-06T22:51:29.056Z,2.63
2023-01-06T22:53:58.535Z,5.07
2023-01-06T22:56:26.674Z,4.30
2023-01-06T22:58:54.764Z,3.80
2023-01-06T23:01:23.352Z,4.73
2023-01-06T23:03:51.690Z,4.23
2023-01-06T23:06:19.830Z,4.10
2023-01-06T23:08:59.507Z,3.43
2023-01-06T23:11:31.742Z,3.90
2023-01-06T23:14:00.335Z,4.33
2023-01-06T23:16:30.453Z,3.67
2023-01-06T23:18:58.374Z,3.03
2023-01-06T23:21:27.634Z,3.83
2023-01-06T23:23:56.893Z,4.33
2023-01-06T23:26:26.768Z,2.80
2023-01-06T23:28:57.735Z,3.67
2023-01-06T23:31:28.100Z,2.13
2023-01-06T23:33:58.566Z,6.20
2023-01-06T23:36:28.404Z,4.30
2023-01-06T23:38:56.851Z,4.13
2023-01-06T23:41:26.980Z,4.07
2023-01-06T23:43:56.950Z,3.07
2023-01-06T23:46:26.933Z,3.27
2023-01-06T23:48:56.000Z,4.77
2023-01-06T23:51:24.917Z,3.23
2023-01-06T23:53:53.976Z,3.27
2023-01-06T23:56:24.065Z,3.00
2023-01-06T23:58:54.173Z,4.10
